createdAt,value
2023-03-27T00:00:20.556Z,19.50
2023-03-27T00:02:50.276Z,16.52
2023-03-27T00:05:20.584Z,21.42
2023-03-27T00:07:49.613Z,22.35
2023-03-27T00:10:18.383Z,16.77
2023-03-27T00:12:46.628Z,16.63
2023-03-27T00:15:17.512Z,20.77
2023-03-27T00:17:47.849Z,15.35
2023-03-27T00:20:21.859Z,12.68
2023-03-27T00:22:55.426Z,8.32
2023-03-27T00:25:25.035Z,8.48
2023-03-27T00:27:54.087Z,10.43
2023-03-27T00:30:22.241Z,9.32
2023-03-27T00:32:50.808Z,10.13
2023-03-27T00:35:20.373Z,10.75
2023-03-27T00:37:48.638Z,11.75
2023-03-27T00:40:17.748Z,10.35
2023-03-27T00:42:46.760Z,10.65
2023-03-27T00:45:18.835Z,8.98
2023-03-27T00:47:49.103Z,7.60
2023-03-27T00:50:25.391Z,9.38
2023-03-27T00:52:56.807Z,9.80
2023-03-27T00:55:28.330Z,9.88
2023-03-27T00:58:01.866Z,7.68
2023-03-27T01:00:30.964Z,9.55
2023-03-27T01:03:01.013Z,11.30
2023-03-27T01:05:31.236Z,11.10
2023-03-27T01:08:00.920Z,8.75
2023-03-27T01:10:41.872Z,9.23
2023-03-27T01:13:23.338Z,10.65
2023-03-27T01:15:59.707Z,8.40
2023-03-27T01:18:41.111Z,12.40
2023-03-27T01:21:49.577Z,10.90
2023-03-27T01:24:58.352Z,11.55
2023-03-27T01:27:44.248Z,14.65
2023-03-27T01:30:19.926Z,12.15
2023-03-27T01:33:28.108Z,15.90
2023-03-27T01:36:23.153Z,9.45
2023-03-27T01:39:26.077Z,9.32
2023-03-27T01:42:02.217Z,8.73
2023-03-27T01:44:43.868Z,10.25
2023-03-27T01:47:33.204Z,9.98
2023-03-27T01:50:08.152Z,9.45
2023-03-27T01:52:41.549Z,9.48
2023-03-27T01:55:19.245Z,11.48
2023-03-27T01:57:53.467Z,10.60
2023-03-27T02:00:24.975Z,10.80
2023-03-27T02:03:11.246Z,9.43
2023-03-27T02:05:46.107Z,8.45
2023-03-27T02:08:19.672Z,8.23
2023-03-27T02:10:54.828Z,17.42
2023-03-27T02:13:28.417Z,9.55
2023-03-27T02:15:59.529Z,10.82
2023-03-27T02:18:35.996Z,9.27
2023-03-27T02:21:04.807Z,12.65
2023-03-27T02:23:37.723Z,12.52
2023-03-27T02:26:10.918Z,10.48
2023-03-27T02:28:51.508Z,9.50
2023-03-27T02:31:34.839Z,8.65
2023-03-27T02:34:22.604Z,10.98
2023-03-27T02:37:02.241Z,10.57
2023-03-27T02:39:58.148Z,11.70
2023-03-27T02:42:35.458Z,9.02
2023-03-27T02:45:13.964Z,8.52
2023-03-27T02:47:47.031Z,13.00
2023-03-27T02:50:20.136Z,12.23
2023-03-27T02:52:54.099Z,13.20
2023-03-27T02:55:25.624Z,12.38
2023-03-27T02:58:00.970Z,12.05
2023-03-27T03:00:43.867Z,8.95
2023-03-27T03:03:37.684Z,9.88
2023-03-27T03:06:21.396Z,11.15
2023-03-27T03:08:50.432Z,10.32
2023-03-27T03:11:19.052Z,9.18
2023-03-27T03:13:48.655Z,11.30
2023-03-27T03:16:17.026Z,9.07
2023-03-27T03:18:45.327Z,9.27
2023-03-27T03:21:14.322Z,8.10
2023-03-27T03:23:42.622Z,9.95
2023-03-27T03:26:28.275Z,10.50
2023-03-27T03:28:59.787Z,13.82
2023-03-27T03:31:44.517Z,11.20
2023-03-27T03:34:16.203Z,9.70
2023-03-27T03:36:49.194Z,12.35
2023-03-27T03:39:20.916Z,11.50
2023-03-27T03:41:51.654Z,10.68
2023-03-27T03:44:21.512Z,9.70
2023-03-27T03:46:49.894Z,8.52
2023-03-27T03:49:22.536Z,10.55
2023-03-27T03:52:03.186Z,11.10
2023-03-27T03:54:32.883Z,8.70
2023-03-27T03:57:01.221Z,10.60
2023-03-27T03:59:31.331Z,9.73
2023-03-27T04:02:28.414Z,10.63
2023-03-27T04:05:08.767Z,14.80
2023-03-27T04:07:40.061Z,13.75
2023-03-27T04:10:27.542Z,14.70
2023-03-27T04:12:57.161Z,22.73
2023-03-27T04:15:30.871Z,22.05
2023-03-27T04:18:16.489Z,25.80
2023-03-27T04:20:50.021Z,21.60
2023-03-27T04:23:20.522Z,23.52
2023-03-27T04:25:49.517Z,20.00
2023-03-27T04:28:25.047Z,17.55
2023-03-27T04:31:10.403Z,15.75
2023-03-27T04:33:57.133Z,19.23
2023-03-27T04:37:00.112Z,17.50
2023-03-27T04:39:29.296Z,14.18
2023-03-27T04:41:58.428Z,18.52
2023-03-27T04:44:29.850Z,23.25
2023-03-27T04:47:01.953Z,17.52
2023-03-27T04:49:30.823Z,21.42
2023-03-27T04:52:03.909Z,17.58
2023-03-27T04:54:32.987Z,18.27
2023-03-27T04:57:03.311Z,21.15
2023-03-27T04:59:32.365Z,16.27
2023-03-27T05:02:26.440Z,17.05
2023-03-27T05:05:04.798Z,20.75
2023-03-27T05:07:36.128Z,20.38
2023-03-27T05:10:07.826Z,22.02
2023-03-27T05:12:37.001Z,18.15
2023-03-27T05:15:07.150Z,14.88
2023-03-27T05:17:41.912Z,17.23
2023-03-27T05:20:14.697Z,20.10
2023-03-27T05:22:44.665Z,17.20
2023-03-27T05:25:34.417Z,18.92
2023-03-27T05:28:05.934Z,28.83
2023-03-27T05:30:36.503Z,23.45
2023-03-27T05:33:24.231Z,28.48
2023-03-27T05:35:55.255Z,28.13
2023-03-27T05:38:24.621Z,29.42
2023-03-27T05:41:11.065Z,31.90
2023-03-27T05:43:45.276Z,30.85
2023-03-27T05:46:20.968Z,34.13
2023-03-27T05:49:00.445Z,32.00
2023-03-27T05:51:29.763Z,28.38
2023-03-27T05:53:58.451Z,31.13
2023-03-27T05:56:36.090Z,25.17
2023-03-27T05:59:05.766Z,29.27
2023-03-27T06:01:36.579Z,27.45
2023-03-27T06:04:06.631Z,24.17
2023-03-27T06:06:55.459Z,20.00
2023-03-27T06:09:23.953Z,22.38
2023-03-27T06:12:18.866Z,16.83
2023-03-27T06:14:47.914Z,17.45
2023-03-27T06:17:30.387Z,21.50
2023-03-27T06:20:11.032Z,14.57
2023-03-27T06:22:42.405Z,13.95
2023-03-27T06:25:10.987Z,20.42
2023-03-27T06:27:39.345Z,17.67
2023-03-27T06:30:09.550Z,15.35
2023-03-27T06:32:38.932Z,17.98
2023-03-27T06:35:14.778Z,14.50
2023-03-27T06:37:59.082Z,16.48
2023-03-27T06:40:29.307Z,4.93
2023-03-27T06:43:02.334Z,5.70
2023-03-27T06:45:43.090Z,5.25
2023-03-27T06:48:30.091Z,3.83
2023-03-27T06:51:00.348Z,5.55
2023-03-27T06:53:31.120Z,3.97
2023-03-27T06:56:02.866Z,4.13
2023-03-27T06:58:44.746Z,4.05
2023-03-27T07:01:13.448Z,4.03
2023-03-27T07:04:17.148Z,6.60
2023-03-27T07:06:54.346Z,4.70
2023-03-27T07:09:22.802Z,4.30
2023-03-27T07:12:00.878Z,4.28
2023-03-27T07:14:29.074Z,3.65
2023-03-27T07:16:57.434Z,8.73
2023-03-27T07:19:29.615Z,4.30
2023-03-27T07:22:06.573Z,9.27
2023-03-27T07:24:37.770Z,5.00
2023-03-27T07:27:07.816Z,6.60
2023-03-27T07:29:37.080Z,5.80
2023-03-27T07:32:08.797Z,6.83
2023-03-27T07:34:49.313Z,6.43
2023-03-27T07:37:27.908Z,5.53
2023-03-27T07:40:29.450Z,9.00
2023-03-27T07:43:21.817Z,4.13
2023-03-27T07:45:50.387Z,7.60
2023-03-27T07:48:19.100Z,5.47
2023-03-27T07:50:48.896Z,6.43
2023-03-27T07:53:33.948Z,6.67
2023-03-27T07:56:12.153Z,7.20
2023-03-27T07:58:41.693Z,9.70
2023-03-27T08:01:11.600Z,4.80
2023-03-27T08:03:41.763Z,8.00
2023-03-27T08:06:10.694Z,5.23
2023-03-27T08:08:40.686Z,4.93
2023-03-27T08:11:19.454Z,5.30
2023-03-27T08:13:56.611Z,9.93
2023-03-27T08:16:27.844Z,7.27
2023-03-27T08:18:57.834Z,7.80
2023-03-27T08:21:28.447Z,6.40
2023-03-27T08:23:58.921Z,5.73
2023-03-27T08:26:36.379Z,8.70
2023-03-27T08:29:09.005Z,6.40
2023-03-27T08:31:38.752Z,4.90
2023-03-27T08:34:07.442Z,5.57
2023-03-27T08:36:46.939Z,5.30
2023-03-27T08:39:17.714Z,6.80
2023-03-27T08:42:08.420Z,7.20
2023-03-27T08:44:40.117Z,5.20
2023-03-27T08:47:20.530Z,5.70
2023-03-27T08:50:05.873Z,5.33
2023-03-27T08:52:47.894Z,9.33
2023-03-27T08:55:34.887Z,5.77
2023-03-27T08:58:19.205Z,6.13
2023-03-27T09:00:53.474Z,5.93
2023-03-27T09:03:30.876Z,6.73
2023-03-27T09:06:03.204Z,5.23
2023-03-27T09:08:44.847Z,6.43
2023-03-27T09:11:27.935Z,5.43
2023-03-27T09:14:07.417Z,5.40
2023-03-27T09:16:40.345Z,7.73
2023-03-27T09:19:17.088Z,7.43
2023-03-27T09:21:50.403Z,7.40
2023-03-27T09:24:41.765Z,5.23
2023-03-27T09:27:41.602Z,6.43
2023-03-27T09:30:30.652Z,4.40
2023-03-27T09:33:05.872Z,4.63
2023-03-27T09:35:38.729Z,4.90
2023-03-27T09:38:30.519Z,2.90
2023-03-27T09:41:02.558Z,3.57
2023-03-27T09:43:42.233Z,3.80
2023-03-27T09:46:17.485Z,3.53
2023-03-27T09:48:53.341Z,4.07
2023-03-27T09:51:39.116Z,3.73
2023-03-27T09:54:14.450Z,3.43
2023-03-27T09:56:46.463Z,3.53
2023-03-27T09:59:26.065Z,5.83
2023-03-27T10:01:58.413Z,4.55
2023-03-27T10:04:29.281Z,4.00
2023-03-27T10:07:05.490Z,5.30
2023-03-27T10:10:08.389Z,6.00
2023-03-27T10:12:55.823Z,4.77
2023-03-27T10:15:35.836Z,7.50
2023-03-27T10:18:08.184Z,5.90
2023-03-27T10:20:36.543Z,8.07
2023-03-27T10:23:10.399Z,6.53
2023-03-27T10:25:46.474Z,3.88
2023-03-27T10:28:24.615Z,5.13
2023-03-27T10:31:28.217Z,3.45
2023-03-27T10:34:03.476Z,3.80
2023-03-27T10:36:55.232Z,2.90
2023-03-27T10:39:29.418Z,4.00
2023-03-27T10:42:09.941Z,5.40
2023-03-27T10:44:44.918Z,5.40
2023-03-27T10:47:21.318Z,4.18
2023-03-27T10:49:59.084Z,9.18
2023-03-27T10:52:42.699Z,4.35
2023-03-27T10:55:26.231Z,4.35
2023-03-27T10:57:58.922Z,5.57
2023-03-27T11:00:38.151Z,12.18
2023-03-27T11:03:15.805Z,5.33
2023-03-27T11:05:48.336Z,4.40
2023-03-27T11:08:58.356Z,4.73
2023-03-27T11:11:30.641Z,3.60
2023-03-27T11:14:05.808Z,3.40
2023-03-27T11:16:39.665Z,3.97
2023-03-27T11:19:29.661Z,5.00
2023-03-27T11:22:32.634Z,3.97
2023-03-27T11:25:07.725Z,4.23
2023-03-27T11:27:43.116Z,4.93
2023-03-27T11:30:35.626Z,5.50
2023-03-27T11:33:19.392Z,3.42
2023-03-27T11:35:55.675Z,3.60
2023-03-27T11:39:09.257Z,3.90
2023-03-27T11:41:37.735Z,3.47
2023-03-27T11:44:06.666Z,5.22
2023-03-27T11:47:19.676Z,2.75
2023-03-27T11:50:06.474Z,3.55
2023-03-27T11:52:46.736Z,4.82
2023-03-27T11:55:26.208Z,3.20
2023-03-27T11:58:11.159Z,5.20
2023-03-27T12:00:55.612Z,5.35
2023-03-27T12:03:38.823Z,4.90
2023-03-27T12:06:17.762Z,3.90
2023-03-27T12:09:12.911Z,4.70
2023-03-27T12:12:18.944Z,4.35
2023-03-27T12:14:58.756Z,4.60
2023-03-27T12:17:45.929Z,3.40
2023-03-27T12:20:58.920Z,3.75
2023-03-27T12:23:46.970Z,2.72
2023-03-27T12:26:49.963Z,2.40
2023-03-27T12:29:49.516Z,3.70
2023-03-27T12:32:40.088Z,4.30
2023-03-27T12:35:12.343Z,4.03
2023-03-27T12:37:50.599Z,4.15
2023-03-27T12:40:29.632Z,5.38
2023-03-27T12:43:24.361Z,4.13
2023-03-27T12:46:16.280Z,1.83
2023-03-27T12:48:51.148Z,2.72
2023-03-27T12:51:20.528Z,3.25
2023-03-27T12:53:59.415Z,4.80
2023-03-27T12:56:38.157Z,1.75
2023-03-27T12:59:33.004Z,1.45
2023-03-27T13:02:41.016Z,1.50
2023-03-27T13:05:37.494Z,2.72
2023-03-27T13:08:32.202Z,3.03
2023-03-27T13:11:19.506Z,2.05
2023-03-27T13:14:18.450Z,2.40
2023-03-27T13:17:17.806Z,3.40
2023-03-27T13:19:56.416Z,3.65
2023-03-27T13:22:48.173Z,3.50
2023-03-27T13:25:40.401Z,3.22
2023-03-27T13:28:26.057Z,3.38
2023-03-27T13:31:03.069Z,3.80
2023-03-27T13:34:28.781Z,4.18
2023-03-27T13:37:48.321Z,5.72
2023-03-27T13:40:24.478Z,5.05
2023-03-27T13:43:03.249Z,5.38
2023-03-27T13:45:40.312Z,5.53
2023-03-27T13:49:06.238Z,6.80
2023-03-27T13:51:55.726Z,10.88
2023-03-27T13:54:48.878Z,9.80
2023-03-27T13:57:40.095Z,11.20
2023-03-27T14:00:43.941Z,7.47
2023-03-27T14:03:57.789Z,3.20
2023-03-27T14:07:16.744Z,3.22
2023-03-27T14:10:15.944Z,1.52
2023-03-27T14:13:03.152Z,2.03
2023-03-27T14:16:02.766Z,3.03
2023-03-27T14:19:01.885Z,2.53
2023-03-27T14:21:38.355Z,2.90
2023-03-27T14:24:23.588Z,3.10
2023-03-27T14:27:00.843Z,2.58
2023-03-27T14:29:29.710Z,2.10
2023-03-27T14:32:03.978Z,2.40
2023-03-27T14:34:47.597Z,1.98
2023-03-27T14:37:56.835Z,2.22
2023-03-27T14:40:35.300Z,2.83
2023-03-27T14:43:08.385Z,3.50
2023-03-27T14:45:40.305Z,1.52
2023-03-27T14:48:22.260Z,1.85
2023-03-27T14:50:55.374Z,2.63
2023-03-27T14:53:28.296Z,2.30
2023-03-27T14:56:29.548Z,2.30
2023-03-27T14:59:25.564Z,2.45
2023-03-27T15:02:02.537Z,3.15
2023-03-27T15:04:31.966Z,1.85
2023-03-27T15:07:14.398Z,2.22
2023-03-27T15:10:21.656Z,1.75
2023-03-27T15:13:10.905Z,6.50
2023-03-27T15:15:49.319Z,12.32
2023-03-27T15:18:25.437Z,5.40
2023-03-27T15:20:56.747Z,6.47
2023-03-27T15:23:29.401Z,6.30
2023-03-27T15:26:02.620Z,7.95
2023-03-27T15:28:34.018Z,9.30
2023-03-27T15:31:05.191Z,6.65
2023-03-27T15:33:38.210Z,7.03
2023-03-27T15:36:11.546Z,7.43
2023-03-27T15:38:41.211Z,7.57
2023-03-27T15:41:42.412Z,9.07
2023-03-27T15:44:14.231Z,11.82
2023-03-27T15:46:50.828Z,8.98
2023-03-27T15:49:31.045Z,6.40
2023-03-27T15:52:01.511Z,10.50
2023-03-27T15:54:35.195Z,6.00
2023-03-27T15:57:09.684Z,6.45
2023-03-27T15:59:52.972Z,5.85
2023-03-27T16:02:26.400Z,4.18
2023-03-27T16:04:57.216Z,4.93
2023-03-27T16:07:30.255Z,5.03
2023-03-27T16:10:02.920Z,5.00
2023-03-27T16:12:33.986Z,7.30
2023-03-27T16:15:04.490Z,7.82
2023-03-27T16:17:41.182Z,7.78
2023-03-27T16:20:35.035Z,5.95
2023-03-27T16:23:04.331Z,6.18
2023-03-27T16:25:32.971Z,5.18
2023-03-27T16:28:01.517Z,5.63
2023-03-27T16:30:32.160Z,11.43
2023-03-27T16:33:02.497Z,8.15
2023-03-27T16:35:32.584Z,5.55
2023-03-27T16:38:01.278Z,5.80
2023-03-27T16:40:29.544Z,5.40
2023-03-27T16:42:57.891Z,7.63
2023-03-27T16:45:26.822Z,30.00
2023-03-27T16:47:55.171Z,12.23
2023-03-27T16:50:29.110Z,7.45
2023-03-27T16:52:57.706Z,9.20
2023-03-27T16:55:26.070Z,7.30
2023-03-27T16:57:55.186Z,6.97
2023-03-27T17:00:24.454Z,8.70
2023-03-27T17:02:52.858Z,7.20
2023-03-27T17:05:21.116Z,6.80
2023-03-27T17:07:50.808Z,10.88
2023-03-27T17:10:19.335Z,15.30
2023-03-27T17:12:47.692Z,5.90
2023-03-27T17:15:16.825Z,6.43
2023-03-27T17:17:45.411Z,5.40
2023-03-27T17:20:14.085Z,10.82
2023-03-27T17:22:42.475Z,10.70
2023-03-27T17:25:12.900Z,10.38
2023-03-27T17:27:41.193Z,7.70
2023-03-27T17:30:10.648Z,9.07
2023-03-27T17:32:39.081Z,6.40
2023-03-27T17:35:08.183Z,6.22
2023-03-27T17:37:37.192Z,5.72
2023-03-27T17:40:09.738Z,5.30
2023-03-27T17:42:39.716Z,5.68
2023-03-27T17:45:08.513Z,6.70
2023-03-27T17:47:37.019Z,7.57
2023-03-27T17:50:06.896Z,8.65
2023-03-27T17:52:35.319Z,33.30
2023-03-27T17:55:03.570Z,8.73
2023-03-27T17:57:33.045Z,8.02
2023-03-27T18:00:06.270Z,9.32
2023-03-27T18:02:41.306Z,7.95
2023-03-27T18:05:09.923Z,10.02
2023-03-27T18:07:38.256Z,10.75
2023-03-27T18:10:08.570Z,15.52
2023-03-27T18:12:37.149Z,11.70
2023-03-27T18:15:08.646Z,5.75
2023-03-27T18:17:37.219Z,3.80
2023-03-27T18:20:10.271Z,2.38
2023-03-27T18:22:39.295Z,1.77
2023-03-27T18:25:10.008Z,2.10
2023-03-27T18:27:40.285Z,2.50
2023-03-27T18:30:14.590Z,2.45
2023-03-27T18:32:45.000Z,2.05
2023-03-27T18:35:15.449Z,2.60
2023-03-27T18:37:45.062Z,2.42
2023-03-27T18:40:15.461Z,2.35
2023-03-27T18:42:45.042Z,3.55
2023-03-27T18:45:16.750Z,3.17
2023-03-27T18:47:45.608Z,2.97
2023-03-27T18:50:15.046Z,4.80
2023-03-27T18:52:43.705Z,5.68
2023-03-27T18:55:13.056Z,4.30
2023-03-27T18:57:41.336Z,3.35
2023-03-27T19:00:13.899Z,3.80
2023-03-27T19:02:43.685Z,5.18
2023-03-27T19:05:13.035Z,4.22
2023-03-27T19:07:44.496Z,4.07
2023-03-27T19:10:14.100Z,4.97
2023-03-27T19:12:45.893Z,7.78
2023-03-27T19:15:37.619Z,6.15
2023-03-27T19:18:30.116Z,6.05
2023-03-27T19:21:14.729Z,8.45
2023-03-27T19:23:46.173Z,6.70
2023-03-27T19:26:19.334Z,6.40
2023-03-27T19:28:48.662Z,6.95
2023-03-27T19:31:17.132Z,6.07
2023-03-27T19:33:46.940Z,6.72
2023-03-27T19:36:15.812Z,6.35
2023-03-27T19:38:44.450Z,7.40
2023-03-27T19:41:13.198Z,8.98
2023-03-27T19:43:41.934Z,7.10
2023-03-27T19:48:42.432Z,7.70
2023-03-27T19:51:19.583Z,6.65
2023-03-27T19:53:51.488Z,8.15
2023-03-27T19:56:22.602Z,6.97
2023-03-27T19:58:50.852Z,7.50
2023-03-27T20:01:20.212Z,7.70
2023-03-27T20:03:48.643Z,9.05
2023-03-27T20:06:19.696Z,7.05
2023-03-27T20:08:49.362Z,7.45
2023-03-27T20:11:17.886Z,6.20
2023-03-27T20:13:56.144Z,7.20
2023-03-27T20:16:27.492Z,6.80
2023-03-27T20:19:03.587Z,6.28
2023-03-27T20:21:35.072Z,6.35
2023-03-27T20:24:09.833Z,6.38
2023-03-27T20:26:41.966Z,7.15
2023-03-27T20:29:18.219Z,5.93
2023-03-27T20:31:47.106Z,5.93
2023-03-27T20:34:19.382Z,6.70
2023-03-27T20:36:48.427Z,5.60
2023-03-27T20:39:38.790Z,6.40
2023-03-27T20:42:07.742Z,7.53
2023-03-27T20:44:36.156Z,6.00
2023-03-27T20:47:11.180Z,6.97
2023-03-27T20:49:41.633Z,5.53
2023-03-27T20:52:11.365Z,4.50
2023-03-27T20:54:41.400Z,5.90
2023-03-27T20:57:12.391Z,6.85
2023-03-27T20:59:40.880Z,5.70
2023-03-27T21:02:15.147Z,5.55
2023-03-27T21:04:43.467Z,6.47
2023-03-27T21:07:11.678Z,6.35
2023-03-27T21:09:41.788Z,7.03
2023-03-27T21:12:10.255Z,6.30
2023-03-27T21:14:38.557Z,12.55
2023-03-27T21:17:06.817Z,7.20
2023-03-27T21:19:35.053Z,6.82
2023-03-27T21:22:03.239Z,7.25
2023-03-27T21:24:31.459Z,7.95
2023-03-27T21:27:01.105Z,6.97
2023-03-27T21:29:29.373Z,8.05
2023-03-27T21:31:57.678Z,8.52
2023-03-27T21:34:26.261Z,9.40
2023-03-27T21:36:54.555Z,8.30
2023-03-27T21:39:22.810Z,7.30
2023-03-27T21:41:51.017Z,8.15
2023-03-27T21:44:20.765Z,7.88
2023-03-27T21:46:48.963Z,7.80
2023-03-27T21:49:17.211Z,10.65
2023-03-27T21:51:45.678Z,9.32
2023-03-27T21:54:13.994Z,10.85
2023-03-27T21:56:42.236Z,10.55
2023-03-27T21:59:10.651Z,9.95
2023-03-27T22:01:40.286Z,10.10
2023-03-27T22:04:08.714Z,8.93
2023-03-27T22:06:36.901Z,9.25
2023-03-27T22:09:05.299Z,9.60
2023-03-27T22:11:33.549Z,9.13
2023-03-27T22:14:01.872Z,10.35
2023-03-27T22:16:30.461Z,9.05
2023-03-27T22:19:00.166Z,9.48
2023-03-27T22:21:30.533Z,8.73
2023-03-27T22:23:59.999Z,9.07
2023-03-27T22:26:32.098Z,8.05
2023-03-27T22:29:00.392Z,7.82
2023-03-27T22:31:30.250Z,10.98
2023-03-27T22:34:00.014Z,11.07
2023-03-27T22:36:28.349Z,11.07
2023-03-27T22:38:56.665Z,12.15
2023-03-27T22:41:24.897Z,12.82
2023-03-27T22:43:53.534Z,12.27
2023-03-27T22:46:24.242Z,11.32
2023-03-27T22:48:55.721Z,11.90
2023-03-27T22:51:26.449Z,14.75
2023-03-27T22:53:54.730Z,10.77
2023-03-27T22:56:23.042Z,12.20
2023-03-27T22:58:51.333Z,13.38
2023-03-27T23:01:19.569Z,11.93
2023-03-27T23:03:47.932Z,12.60
2023-03-27T23:06:20.377Z,15.30
2023-03-27T23:08:51.231Z,14.13
2023-03-27T23:11:20.316Z,11.40
2023-03-27T23:13:48.648Z,11.40
2023-03-27T23:16:17.203Z,10.98
2023-03-27T23:18:45.506Z,11.82
2023-03-27T23:21:16.734Z,10.23
2023-03-27T23:23:45.683Z,8.23
2023-03-27T23:26:15.710Z,7.55
2023-03-27T23:28:44.032Z,8.20
2023-03-27T23:31:14.066Z,6.32
2023-03-27T23:33:43.954Z,4.80
2023-03-27T23:36:14.139Z,5.40
2023-03-27T23:38:43.183Z,5.10
2023-03-27T23:41:13.773Z,3.70
2023-03-27T23:43:43.604Z,4.78
2023-03-27T23:46:12.141Z,4.28
2023-03-27T23:48:42.105Z,4.10
2023-03-27T23:51:11.856Z,3.53
2023-03-27T23:53:40.518Z,3.13
2023-03-27T23:56:09.844Z,2.70
2023-03-27T23:58:38.500Z,3.30
